createdAt,value
2023-05-02T00:00:56.292Z,96204.72
2023-05-02T00:01:57.953Z,96203.03
2023-05-02T00:03:00.792Z,96207.53
2023-05-02T00:04:02.710Z,96208.19
2023-05-02T00:05:06.141Z,96204.72
2023-05-02T00:06:07.659Z,96204.88
2023-05-02T00:07:09.128Z,96202.22
2023-05-02T00:08:12.262Z,96200.06
2023-05-02T00:09:14.365Z,96206.50
2023-05-02T00:10:16.236Z,96203.56
2023-05-02T00:11:17.968Z,96202.38
2023-05-02T00:12:19.473Z,96199.91
2023-05-02T00:13:21.015Z,96196.56
2023-05-02T00:14:24.404Z,96195.72
2023-05-02T00:15:27.494Z,96196.91
2023-05-02T00:16:29.181Z,96194.56
2023-05-02T00:17:31.079Z,96196.59
2023-05-02T00:18:32.973Z,96194.75
2023-05-02T00:19:39.057Z,96194.94
2023-05-02T00:20:41.750Z,96200.59
2023-05-02T00:21:43.251Z,96198.94
2023-05-02T00:22:44.966Z,96191.94
2023-05-02T00:23:46.761Z,96196.44
2023-05-02T00:24:48.317Z,96194.78
2023-05-02T00:25:50.158Z,96195.81
2023-05-02T00:26:51.602Z,96192.47
2023-05-02T00:27:53.263Z,96201.13
2023-05-02T00:28:54.983Z,96192.97
2023-05-02T00:29:56.491Z,96200.94
2023-05-02T00:30:59.298Z,96195.63
2023-05-02T00:32:01.534Z,96200.94
2023-05-02T00:33:03.454Z,96203.25
2023-05-02T00:34:05.268Z,96201.09
2023-05-02T00:35:07.360Z,96206.22
2023-05-02T00:36:16.362Z,96197.56
2023-05-02T00:37:18.853Z,96197.88
2023-05-02T00:38:20.424Z,96201.31
2023-05-02T00:39:21.928Z,96200.28
2023-05-02T00:40:23.679Z,96198.41
2023-05-02T00:41:25.304Z,96199.34
2023-05-02T00:42:26.944Z,96204.63
2023-05-02T00:43:30.609Z,96201.81
2023-05-02T00:44:32.626Z,96201.91
2023-05-02T00:45:34.368Z,96196.31
2023-05-02T00:46:36.072Z,96198.97
2023-05-02T00:47:38.087Z,96199.28
2023-05-02T00:48:39.762Z,96198.75
2023-05-02T00:49:42.160Z,96198.75
2023-05-02T00:50:43.665Z,96205.81
2023-05-02T00:51:45.664Z,96197.50
2023-05-02T00:52:47.296Z,96196.31
2023-05-02T00:53:49.251Z,96203.41
2023-05-02T00:54:51.339Z,96194.78
2023-05-02T00:55:54.279Z,96198.63
2023-05-02T00:56:55.773Z,96198.44
2023-05-02T00:57:57.751Z,96198.81
2023-05-02T00:59:01.437Z,96193.19
2023-05-02T01:00:05.071Z,96194.53
2023-05-02T01:01:28.283Z,96196.47
2023-05-02T01:02:51.521Z,96200.50
2023-05-02T01:04:02.498Z,96193.19
2023-05-02T01:05:14.888Z,96193.19
2023-05-02T01:06:24.709Z,96195.97
2023-05-02T01:07:46.905Z,96199.63
2023-05-02T01:09:06.909Z,96193.19
2023-05-02T01:10:41.674Z,96198.50
2023-05-02T01:12:05.281Z,96198.03
2023-05-02T01:13:14.032Z,96196.03
2023-05-02T01:14:15.924Z,96203.16
2023-05-02T01:15:21.210Z,96195.19
2023-05-02T01:16:25.207Z,96205.63
2023-05-02T01:17:30.491Z,96200.31
2023-05-02T01:18:36.777Z,96204.81
2023-05-02T01:19:42.254Z,96199.00
2023-05-02T01:20:46.449Z,96199.50
2023-05-02T01:21:49.897Z,96205.50
2023-05-02T01:22:52.347Z,96200.00
2023-05-02T01:24:13.444Z,96195.84
2023-05-02T01:25:20.411Z,96201.81
2023-05-02T01:26:21.815Z,96200.69
2023-05-02T01:27:45.093Z,96200.69
2023-05-02T01:28:58.888Z,96204.34
2023-05-02T01:30:03.435Z,96205.19
2023-05-02T01:31:06.866Z,96200.00
2023-05-02T01:32:10.812Z,96202.28
2023-05-02T01:33:17.203Z,96208.16
2023-05-02T01:34:21.368Z,96210.13
2023-05-02T01:35:24.235Z,96208.47
2023-05-02T01:36:30.188Z,96209.09
2023-05-02T01:37:33.944Z,96209.09
2023-05-02T01:38:37.481Z,96203.41
2023-05-02T01:39:41.033Z,96208.41
2023-05-02T01:40:45.551Z,96207.59
2023-05-02T01:41:51.736Z,96210.03
2023-05-02T01:42:54.322Z,96201.28
2023-05-02T01:44:00.398Z,96200.25
2023-05-02T01:45:04.296Z,96208.41
2023-05-02T01:46:10.425Z,96199.75
2023-05-02T01:47:13.749Z,96201.28
2023-05-02T01:48:19.187Z,96207.91
2023-05-02T01:49:24.229Z,96212.56
2023-05-02T01:50:27.125Z,96208.97
2023-05-02T01:51:33.122Z,96197.50
2023-05-02T01:52:35.517Z,96206.94
2023-05-02T01:53:39.353Z,96206.47
2023-05-02T01:54:42.236Z,96203.16
2023-05-02T01:55:45.764Z,96207.84
2023-05-02T01:56:49.231Z,96213.34
2023-05-02T01:57:53.164Z,96205.88
2023-05-02T01:58:56.195Z,96200.38
2023-05-02T01:59:59.290Z,96212.72
2023-05-02T02:01:01.770Z,96207.59
2023-05-02T02:02:06.236Z,96210.59
2023-05-02T02:03:09.691Z,96201.13
2023-05-02T02:04:14.029Z,96205.34
2023-05-02T02:05:18.515Z,96207.00
2023-05-02T02:06:21.332Z,96200.88
2023-05-02T02:07:23.392Z,96198.94
2023-05-02T02:08:26.314Z,96211.22
2023-05-02T02:09:27.975Z,96207.38
2023-05-02T02:10:35.956Z,96205.38
2023-05-02T02:11:59.820Z,96206.53
2023-05-02T02:13:12.612Z,96205.06
2023-05-02T02:14:22.699Z,96206.91
2023-05-02T02:15:34.766Z,96209.56
2023-05-02T02:16:41.596Z,96209.69
2023-05-02T02:17:48.222Z,96211.88
2023-05-02T02:18:51.681Z,96217.88
2023-05-02T02:19:55.833Z,96219.34
2023-05-02T02:20:59.182Z,96215.38
2023-05-02T02:22:03.197Z,96222.34
2023-05-02T02:23:07.316Z,96221.50
2023-05-02T02:24:09.647Z,96223.94
2023-05-02T02:25:13.497Z,96219.06
2023-05-02T02:26:19.565Z,96226.91
2023-05-02T02:27:21.603Z,96222.09
2023-05-02T02:28:23.492Z,96231.25
2023-05-02T02:29:25.431Z,96231.78
2023-05-02T02:30:27.066Z,96227.97
2023-05-02T02:31:36.046Z,96227.31
2023-05-02T02:32:38.083Z,96222.19
2023-05-02T02:33:40.281Z,96236.13
2023-05-02T02:34:42.021Z,96226.19
2023-05-02T02:35:50.513Z,96230.69
2023-05-02T02:37:08.250Z,96229.81
2023-05-02T02:38:38.981Z,96235.59
2023-05-02T02:40:12.530Z,96234.78
2023-05-02T02:41:24.342Z,96235.13
2023-05-02T02:42:36.156Z,96238.78
2023-05-02T02:43:48.266Z,96233.66
2023-05-02T02:45:01.071Z,96245.91
2023-05-02T02:46:09.379Z,96243.63
2023-05-02T02:47:21.775Z,96242.97
2023-05-02T02:48:34.933Z,96241.16
2023-05-02T02:50:02.548Z,96236.56
2023-05-02T02:51:14.795Z,96242.72
2023-05-02T02:52:31.610Z,96245.72
2023-05-02T02:53:57.891Z,96245.53
2023-05-02T02:55:16.464Z,96246.88
2023-05-02T02:56:26.610Z,96244.06
2023-05-02T02:57:44.951Z,96256.19
2023-05-02T02:58:54.611Z,96248.41
2023-05-02T03:00:22.049Z,96259.50
2023-05-02T03:01:26.959Z,96256.19
2023-05-02T03:02:32.085Z,96256.84
2023-05-02T03:03:34.824Z,96265.66
2023-05-02T03:04:39.322Z,96263.81
2023-05-02T03:05:43.231Z,96263.66
2023-05-02T03:06:45.061Z,96266.66
2023-05-02T03:07:47.078Z,96266.34
2023-05-02T03:08:48.555Z,96266.22
2023-05-02T03:09:53.931Z,96268.53
2023-05-02T03:10:57.785Z,96273.84
2023-05-02T03:11:59.327Z,96266.41
2023-05-02T03:13:01.584Z,96273.69
2023-05-02T03:14:03.182Z,96270.03
2023-05-02T03:15:24.155Z,96273.84
2023-05-02T03:16:34.169Z,96278.66
2023-05-02T03:17:36.783Z,96281.81
2023-05-02T03:18:38.655Z,96288.44
2023-05-02T03:19:40.166Z,96284.81
2023-05-02T03:20:41.937Z,96285.13
2023-05-02T03:21:43.627Z,96284.97
2023-05-02T03:22:50.899Z,96287.63
2023-05-02T03:23:52.805Z,96291.44
2023-05-02T03:24:54.990Z,96293.75
2023-05-02T03:25:56.553Z,96298.38
2023-05-02T03:27:00.149Z,96290.09
2023-05-02T03:28:07.676Z,96294.09
2023-05-02T03:29:09.977Z,96301.38
2023-05-02T03:30:15.112Z,96304.38
2023-05-02T03:31:17.082Z,96298.72
2023-05-02T03:32:18.568Z,96296.56
2023-05-02T03:33:20.517Z,96300.72
2023-05-02T03:34:22.345Z,96307.66
2023-05-02T03:35:25.800Z,96299.53
2023-05-02T03:36:28.275Z,96300.38
2023-05-02T03:37:30.534Z,96303.84
2023-05-02T03:38:34.288Z,96303.84
2023-05-02T03:39:40.410Z,96314.16
2023-05-02T03:40:41.932Z,96306.03
2023-05-02T03:41:46.513Z,96307.00
2023-05-02T03:42:51.914Z,96308.00
2023-05-02T03:43:59.766Z,96313.81
2023-05-02T03:45:02.961Z,96320.75
2023-05-02T03:46:07.831Z,96318.09
2023-05-02T03:47:13.644Z,96321.44
2023-05-02T03:48:17.323Z,96328.25
2023-05-02T03:49:19.690Z,96329.56
2023-05-02T03:50:23.480Z,96332.69
2023-05-02T03:51:26.874Z,96337.88
2023-05-02T03:52:30.837Z,96332.22
2023-05-02T03:53:33.310Z,96327.38
2023-05-02T03:54:34.928Z,96334.19
2023-05-02T03:55:43.735Z,96329.38
2023-05-02T03:56:54.144Z,96332.38
2023-05-02T03:58:02.635Z,96339.16
2023-05-02T03:59:04.361Z,96345.81
2023-05-02T04:00:06.965Z,96341.00
2023-05-02T04:01:16.093Z,96342.47
2023-05-02T04:02:20.599Z,96345.97
2023-05-02T04:03:24.481Z,96340.97
2023-05-02T04:04:26.410Z,96346.78
2023-05-02T04:05:29.627Z,96351.75
2023-05-02T04:06:32.110Z,96351.59
2023-05-02T04:07:37.507Z,96349.75
2023-05-02T04:08:41.210Z,96360.19
2023-05-02T04:09:42.716Z,96357.22
2023-05-02T04:10:46.877Z,96356.69
2023-05-02T04:11:49.215Z,96350.38
2023-05-02T04:12:50.805Z,96351.22
2023-05-02T04:13:53.522Z,96353.69
2023-05-02T04:14:55.693Z,96355.34
2023-05-02T04:16:01.095Z,96355.00
2023-05-02T04:17:07.076Z,96355.00
2023-05-02T04:18:13.587Z,96364.66
2023-05-02T04:19:16.394Z,96361.63
2023-05-02T04:20:18.466Z,96369.97
2023-05-02T04:21:23.698Z,96362.97
2023-05-02T04:22:25.273Z,96361.00
2023-05-02T04:23:31.381Z,96367.97
2023-05-02T04:24:35.578Z,96368.97
2023-05-02T04:25:37.223Z,96367.47
2023-05-02T04:26:39.096Z,96371.09
2023-05-02T04:27:44.601Z,96362.81
2023-05-02T04:28:49.710Z,96368.81
2023-05-02T04:29:53.445Z,96373.13
2023-05-02T04:30:56.488Z,96372.63
2023-05-02T04:31:59.483Z,96373.75
2023-05-02T04:33:02.945Z,96375.44
2023-05-02T04:34:08.364Z,96375.59
2023-05-02T04:35:16.241Z,96378.25
2023-05-02T04:36:19.038Z,96377.28
2023-05-02T04:37:21.846Z,96371.28
2023-05-02T04:38:24.345Z,96374.63
2023-05-02T04:39:26.150Z,96377.09
2023-05-02T04:40:46.179Z,96375.09
2023-05-02T04:41:48.239Z,96379.09
2023-05-02T04:42:50.480Z,96386.88
2023-05-02T04:43:55.582Z,96379.94
2023-05-02T04:44:57.417Z,96382.72
2023-05-02T04:45:59.060Z,96385.06
2023-05-02T04:47:04.890Z,96387.41
2023-05-02T04:48:06.635Z,96390.72
2023-05-02T04:49:08.728Z,96384.06
2023-05-02T04:50:10.502Z,96391.72
2023-05-02T04:51:12.541Z,96385.59
2023-05-02T04:52:15.044Z,96381.41
2023-05-02T04:53:16.695Z,96390.72
2023-05-02T04:54:18.263Z,96390.56
2023-05-02T04:55:20.109Z,96387.91
2023-05-02T04:56:21.918Z,96383.41
2023-05-02T04:57:23.999Z,96389.88
2023-05-02T04:58:30.327Z,96390.03
2023-05-02T04:59:36.076Z,96392.81
2023-05-02T05:00:38.133Z,96393.13
2023-05-02T05:01:39.785Z,96390.78
2023-05-02T05:02:43.543Z,96395.75
2023-05-02T05:03:48.154Z,96395.25
2023-05-02T05:04:51.648Z,96390.06
2023-05-02T05:05:54.328Z,96391.59
2023-05-02T05:06:58.141Z,96395.78
2023-05-02T05:08:01.980Z,96396.31
2023-05-02T05:09:07.430Z,96392.03
2023-05-02T05:10:11.804Z,96397.47
2023-05-02T05:11:20.430Z,96398.84
2023-05-02T05:12:22.045Z,96395.22
2023-05-02T05:13:23.801Z,96393.84
2023-05-02T05:14:25.709Z,96395.28
2023-05-02T05:15:29.427Z,96398.72
2023-05-02T05:16:33.932Z,96394.34
2023-05-02T05:17:36.319Z,96398.00
2023-05-02T05:18:41.430Z,96403.72
2023-05-02T05:19:45.821Z,96401.84
2023-05-02T05:20:47.277Z,96401.75
2023-05-02T05:21:48.895Z,96398.25
2023-05-02T05:22:52.908Z,96403.53
2023-05-02T05:23:55.917Z,96401.44
2023-05-02T05:25:01.054Z,96401.16
2023-05-02T05:26:13.126Z,96405.28
2023-05-02T05:27:17.116Z,96407.91
2023-05-02T05:28:18.815Z,96404.00
2023-05-02T05:29:21.100Z,96401.75
2023-05-02T05:30:22.842Z,96405.78
2023-05-02T05:31:24.464Z,96403.25
2023-05-02T05:32:30.116Z,96406.97
2023-05-02T05:33:31.675Z,96405.69
2023-05-02T05:34:33.287Z,96403.75
2023-05-02T05:35:35.669Z,96410.06
2023-05-02T05:36:39.869Z,96411.38
2023-05-02T05:37:41.751Z,96410.81
2023-05-02T05:38:46.332Z,96416.78
2023-05-02T05:39:48.902Z,96412.31
2023-05-02T05:40:51.202Z,96422.28
2023-05-02T05:41:54.849Z,96431.75
2023-05-02T05:42:57.907Z,96435.75
2023-05-02T05:44:04.072Z,96441.38
2023-05-02T05:45:07.221Z,96433.63
2023-05-02T05:46:09.216Z,96434.44
2023-05-02T05:47:12.360Z,96440.06
2023-05-02T05:48:14.041Z,96442.28
2023-05-02T05:49:19.394Z,96437.72
2023-05-02T05:50:21.802Z,96438.03
2023-05-02T05:51:23.445Z,96440.88
2023-05-02T05:52:25.213Z,96445.00
2023-05-02T05:53:28.815Z,96445.22
2023-05-02T05:54:31.236Z,96444.38
2023-05-02T05:55:37.215Z,96439.03
2023-05-02T05:56:39.422Z,96441.56
2023-05-02T05:57:45.844Z,96444.53
2023-05-02T05:58:47.449Z,96443.84
2023-05-02T05:59:49.814Z,96450.19
2023-05-02T06:00:52.046Z,96447.47
2023-05-02T06:01:54.123Z,96444.81
2023-05-02T06:02:57.469Z,96444.69
2023-05-02T06:04:06.595Z,96449.00
2023-05-02T06:05:11.272Z,96453.97
2023-05-02T06:06:13.157Z,96446.69
2023-05-02T06:07:14.797Z,96453.34
2023-05-02T06:08:16.421Z,96448.66
2023-05-02T06:09:17.935Z,96448.69
2023-05-02T06:10:19.500Z,96455.50
2023-05-02T06:11:21.612Z,96450.81
2023-05-02T06:12:23.233Z,96449.09
2023-05-02T06:13:24.766Z,96460.69
2023-05-02T06:14:26.706Z,96450.78
2023-05-02T06:15:28.420Z,96452.09
2023-05-02T06:16:29.964Z,96457.56
2023-05-02T06:17:31.779Z,96457.38
2023-05-02T06:18:33.521Z,96463.19
2023-05-02T06:19:35.009Z,96455.94
2023-05-02T06:20:37.098Z,96461.47
2023-05-02T06:21:39.437Z,96459.47
2023-05-02T06:22:41.604Z,96462.19
2023-05-02T06:23:43.176Z,96468.81
2023-05-02T06:24:44.707Z,96458.59
2023-05-02T06:25:46.509Z,96459.81
2023-05-02T06:26:48.021Z,96459.72
2023-05-02T06:27:49.590Z,96455.59
2023-05-02T06:28:51.057Z,96461.00
2023-05-02T06:29:53.248Z,96465.41
2023-05-02T06:31:02.180Z,96457.78
2023-05-02T06:32:04.280Z,96465.59
2023-05-02T06:33:05.911Z,96453.66
2023-05-02T06:34:07.809Z,96457.41
2023-05-02T06:35:10.712Z,96456.59
2023-05-02T06:36:12.247Z,96455.19
2023-05-02T06:37:13.983Z,96464.50
2023-05-02T06:38:18.134Z,96462.47
2023-05-02T06:39:19.605Z,96466.03
2023-05-02T06:40:21.152Z,96472.28
2023-05-02T06:41:23.468Z,96473.47
2023-05-02T06:42:25.053Z,96472.78
2023-05-02T06:43:26.561Z,96476.00
2023-05-02T06:44:28.132Z,96483.13
2023-05-02T06:45:29.646Z,96478.63
2023-05-02T06:46:31.787Z,96471.75
2023-05-02T06:47:33.454Z,96481.84
2023-05-02T06:48:38.008Z,96483.59
2023-05-02T06:49:39.491Z,96481.84
2023-05-02T06:50:41.227Z,96483.44
2023-05-02T06:51:43.927Z,96479.66
2023-05-02T06:52:45.465Z,96488.63
2023-05-02T06:53:46.955Z,96483.41
2023-05-02T06:54:48.544Z,96483.59
2023-05-02T06:55:50.270Z,96488.22
2023-05-02T06:56:51.960Z,96485.19
2023-05-02T06:57:54.644Z,96483.63
2023-05-02T06:58:56.149Z,96482.06
2023-05-02T06:59:57.738Z,96484.16
2023-05-02T07:00:59.408Z,96480.03
2023-05-02T07:02:01.935Z,96490.63
2023-05-02T07:03:05.265Z,96492.44
2023-05-02T07:04:06.799Z,96484.63
2023-05-02T07:05:08.886Z,96490.16
2023-05-02T07:06:10.572Z,96486.50
2023-05-02T07:07:12.144Z,96486.22
2023-05-02T07:08:13.856Z,96496.88
2023-05-02T07:09:15.373Z,96485.66
2023-05-02T07:10:16.938Z,96494.50
2023-05-02T07:11:18.432Z,96497.34
2023-05-02T07:12:20.905Z,96486.13
2023-05-02T07:13:22.375Z,96486.56
2023-05-02T07:14:23.909Z,96499.19
2023-05-02T07:15:25.533Z,96507.00
2023-05-02T07:16:27.828Z,96501.50
2023-05-02T07:17:29.398Z,96496.81
2023-05-02T07:18:31.226Z,96499.56
2023-05-02T07:19:33.500Z,96506.13
2023-05-02T07:20:35.024Z,96502.88
2023-05-02T07:21:36.522Z,96504.75
2023-05-02T07:22:38.099Z,96501.69
2023-05-02T07:23:39.550Z,96503.06
2023-05-02T07:24:42.207Z,96501.50
2023-05-02T07:25:43.776Z,96505.56
2023-05-02T07:26:45.341Z,96509.63
2023-05-02T07:27:46.877Z,96514.28
2023-05-02T07:28:48.483Z,96509.00
2023-05-02T07:29:50.046Z,96511.81
2023-05-02T07:30:51.588Z,96505.28
2023-05-02T07:31:53.151Z,96508.22
2023-05-02T07:32:54.791Z,96506.47
2023-05-02T07:33:56.301Z,96507.25
2023-05-02T07:34:57.806Z,96512.84
2023-05-02T07:35:59.324Z,96508.09
2023-05-02T07:37:00.880Z,96514.72
2023-05-02T07:38:02.384Z,96512.56
2023-05-02T07:39:03.824Z,96515.91
2023-05-02T07:40:07.392Z,96514.06
2023-05-02T07:41:08.852Z,96510.31
2023-05-02T07:42:10.402Z,96512.38
2023-05-02T07:43:11.877Z,96511.28
2023-05-02T07:44:13.356Z,96511.81
2023-05-02T07:45:14.853Z,96507.94
2023-05-02T07:46:16.497Z,96513.28
2023-05-02T07:47:17.970Z,96509.16
2023-05-02T07:48:20.282Z,96504.22
2023-05-02T07:49:21.806Z,96504.34
2023-05-02T07:50:23.860Z,96508.97
2023-05-02T07:51:26.836Z,96505.78
2023-05-02T07:52:28.433Z,96514.44
2023-05-02T07:53:29.973Z,96505.38
2023-05-02T07:54:31.828Z,96512.06
2023-05-02T07:55:33.440Z,96505.88
2023-05-02T07:56:35.704Z,96515.06
2023-05-02T07:57:37.243Z,96513.66
2023-05-02T07:58:38.692Z,96513.00
2023-05-02T07:59:40.186Z,96515.88
2023-05-02T08:00:41.753Z,96516.94
2023-05-02T08:01:44.299Z,96518.66
2023-05-02T08:02:46.304Z,96517.75
2023-05-02T08:03:50.138Z,96522.81
2023-05-02T08:04:51.976Z,96523.13
2023-05-02T08:05:54.352Z,96526.06
2023-05-02T08:06:56.393Z,96519.75
2023-05-02T08:07:57.968Z,96521.44
2023-05-02T08:08:59.605Z,96526.97
2023-05-02T08:10:01.789Z,96526.19
2023-05-02T08:11:03.713Z,96525.63
2023-05-02T08:12:05.284Z,96526.63
2023-05-02T08:13:06.797Z,96534.28
2023-05-02T08:14:08.269Z,96536.59
2023-05-02T08:15:12.868Z,96544.38
2023-05-02T08:16:14.366Z,96545.41
2023-05-02T08:17:15.887Z,96545.28
2023-05-02T08:18:17.367Z,96536.38
2023-05-02T08:19:18.855Z,96547.75
2023-05-02T08:20:20.509Z,96543.03
2023-05-02T08:21:23.195Z,96548.56
2023-05-02T08:22:25.240Z,96546.88
2023-05-02T08:23:26.868Z,96544.84
2023-05-02T08:24:28.396Z,96549.97
2023-05-02T08:25:30.465Z,96551.41
2023-05-02T08:26:32.731Z,96548.31
2023-05-02T08:27:35.407Z,96554.78
2023-05-02T08:28:37.000Z,96552.13
2023-05-02T08:29:38.486Z,96554.16
2023-05-02T08:30:40.085Z,96549.44
2023-05-02T08:31:41.926Z,96555.03
2023-05-02T08:32:43.737Z,96552.53
2023-05-02T08:33:45.309Z,96551.88
2023-05-02T08:34:46.822Z,96553.66
2023-05-02T08:35:48.954Z,96557.81
2023-05-02T08:36:50.477Z,96555.53
2023-05-02T08:37:51.975Z,96558.69
2023-05-02T08:38:53.464Z,96563.44
2023-05-02T08:39:54.965Z,96563.06
2023-05-02T08:40:56.511Z,96559.56
2023-05-02T08:41:57.973Z,96563.91
2023-05-02T08:42:59.506Z,96555.41
2023-05-02T08:44:03.093Z,96557.91
2023-05-02T08:45:06.095Z,96549.91
2023-05-02T08:46:09.229Z,96554.22
2023-05-02T08:47:13.713Z,96558.34
2023-05-02T08:48:17.297Z,96551.34
2023-05-02T08:49:19.627Z,96551.72
2023-05-02T08:50:22.103Z,96542.38
2023-05-02T08:51:24.645Z,96552.06
2023-05-02T08:52:27.374Z,96553.97
2023-05-02T08:53:32.226Z,96548.81
2023-05-02T08:54:34.269Z,96555.69
2023-05-02T08:55:42.244Z,96546.84
2023-05-02T08:56:45.103Z,96554.38
2023-05-02T08:57:46.689Z,96557.94
2023-05-02T08:58:48.262Z,96556.28
2023-05-02T08:59:49.923Z,96560.00
2023-05-02T09:00:53.579Z,96559.63
2023-05-02T09:02:00.882Z,96567.00
2023-05-02T09:03:10.269Z,96563.50
2023-05-02T09:04:12.210Z,96555.16
2023-05-02T09:05:19.297Z,96564.13
2023-05-02T09:06:22.657Z,96561.69
2023-05-02T09:07:24.221Z,96573.69
2023-05-02T09:08:26.217Z,96574.72
2023-05-02T09:09:29.102Z,96569.03
2023-05-02T09:10:31.021Z,96566.59
2023-05-02T09:11:32.773Z,96568.91
2023-05-02T09:12:34.267Z,96581.50
2023-05-02T09:13:48.817Z,96578.31
2023-05-02T09:15:09.542Z,96571.75
2023-05-02T09:16:15.832Z,96574.84
2023-05-02T09:17:17.341Z,96572.38
2023-05-02T09:18:23.372Z,96572.53
2023-05-02T09:19:28.790Z,96571.78
2023-05-02T09:20:40.686Z,96568.78
2023-05-02T09:21:42.270Z,96570.72
2023-05-02T09:22:52.158Z,96573.63
2023-05-02T09:23:55.711Z,96576.66
2023-05-02T09:24:57.616Z,96567.88
2023-05-02T09:26:00.816Z,96574.25
2023-05-02T09:27:04.686Z,96575.81
2023-05-02T09:28:06.298Z,96570.91
2023-05-02T09:29:07.769Z,96572.81
2023-05-02T09:30:20.129Z,96571.94
2023-05-02T09:31:43.760Z,96569.13
2023-05-02T09:32:51.192Z,96570.88
2023-05-02T09:33:53.409Z,96567.94
2023-05-02T09:35:06.490Z,96570.03
2023-05-02T09:36:11.048Z,96566.66
2023-05-02T09:37:35.736Z,96577.38
2023-05-02T09:38:38.804Z,96571.06
2023-05-02T09:39:40.440Z,96576.78
2023-05-02T09:40:54.679Z,96568.56
2023-05-02T09:41:57.527Z,96568.84
2023-05-02T09:42:59.237Z,96569.13
2023-05-02T09:44:00.802Z,96568.22
2023-05-02T09:45:02.447Z,96569.16
2023-05-02T09:46:08.986Z,96575.75
2023-05-02T09:47:10.718Z,96574.88
2023-05-02T09:48:15.103Z,96576.72
2023-05-02T09:49:20.199Z,96569.75
2023-05-02T09:50:38.367Z,96579.41
2023-05-02T09:51:41.282Z,96570.97
2023-05-02T09:53:01.296Z,96572.13
2023-05-02T09:54:03.205Z,96577.13
2023-05-02T09:55:21.770Z,96574.53
2023-05-02T09:56:23.990Z,96568.59
2023-05-02T09:57:41.597Z,96572.50
2023-05-02T09:58:43.302Z,96571.50
2023-05-02T09:59:58.374Z,96567.00
2023-05-02T10:01:00.309Z,96560.78
2023-05-02T10:02:07.522Z,96570.34
2023-05-02T10:03:10.055Z,96564.25
2023-05-02T10:04:16.957Z,96567.69
2023-05-02T10:05:20.051Z,96561.47
2023-05-02T10:06:22.266Z,96568.38
2023-05-02T10:07:25.648Z,96569.38
2023-05-02T10:08:29.151Z,96566.88
2023-05-02T10:09:34.219Z,96561.72
2023-05-02T10:10:45.970Z,96569.78
2023-05-02T10:11:53.480Z,96573.13
2023-05-02T10:12:55.587Z,96570.53
2023-05-02T10:13:57.535Z,96589.69
2023-05-02T10:15:03.301Z,96572.50
2023-05-02T10:16:07.397Z,96582.44
2023-05-02T10:17:13.983Z,96574.16
2023-05-02T10:18:25.234Z,96581.56
2023-05-02T10:20:05.807Z,96579.56
2023-05-02T10:21:17.554Z,96584.50
2023-05-02T10:22:22.437Z,96571.81
2023-05-02T10:23:27.456Z,96577.13
2023-05-02T10:24:32.526Z,96573.81
2023-05-02T10:25:34.692Z,96580.06
2023-05-02T10:26:36.296Z,96579.81
2023-05-02T10:27:38.034Z,96583.59
2023-05-02T10:28:41.465Z,96584.16
2023-05-02T10:29:44.003Z,96578.66
2023-05-02T10:30:46.584Z,96582.19
2023-05-02T10:31:49.983Z,96581.59
2023-05-02T10:32:56.269Z,96577.31
2023-05-02T10:33:59.146Z,96574.63
2023-05-02T10:35:05.796Z,96578.75
2023-05-02T10:36:10.250Z,96577.69
2023-05-02T10:37:12.486Z,96573.81
2023-05-02T10:38:18.003Z,96574.09
2023-05-02T10:39:24.265Z,96577.63
2023-05-02T10:40:26.811Z,96578.63
2023-05-02T10:41:32.000Z,96582.53
2023-05-02T10:42:39.532Z,96573.25
2023-05-02T10:43:45.834Z,96580.56
2023-05-02T10:44:47.685Z,96571.91
2023-05-02T10:45:49.542Z,96569.53
2023-05-02T10:46:51.122Z,96568.69
2023-05-02T10:48:15.514Z,96568.69
2023-05-02T10:49:17.136Z,96563.41
2023-05-02T10:50:18.653Z,96571.78
2023-05-02T10:51:32.084Z,96567.84
2023-05-02T10:52:38.245Z,96569.13
2023-05-02T10:53:43.939Z,96565.16
2023-05-02T10:54:46.168Z,96565.22
2023-05-02T10:56:07.593Z,96559.81
2023-05-02T10:57:09.354Z,96556.75
2023-05-02T10:58:20.912Z,96556.47
2023-05-02T10:59:30.450Z,96564.31
2023-05-02T11:00:36.704Z,96560.50
2023-05-02T11:01:39.859Z,96561.69
2023-05-02T11:02:41.670Z,96566.56
2023-05-02T11:03:59.299Z,96571.78
2023-05-02T11:05:05.879Z,96564.97
2023-05-02T11:06:07.945Z,96562.53
2023-05-02T11:07:09.545Z,96563.59
2023-05-02T11:08:21.348Z,96561.97
2023-05-02T11:09:24.637Z,96565.13
2023-05-02T11:10:27.298Z,96552.97
2023-05-02T11:11:45.108Z,96553.56
2023-05-02T11:12:51.411Z,96554.19
2023-05-02T11:13:53.156Z,96567.06
2023-05-02T11:14:54.617Z,96559.16
2023-05-02T11:15:56.944Z,96563.44
2023-05-02T11:17:01.607Z,96559.41
2023-05-02T11:18:07.664Z,96563.41
2023-05-02T11:19:09.392Z,96552.53
2023-05-02T11:20:14.164Z,96553.34
2023-05-02T11:21:28.621Z,96557.72
2023-05-02T11:22:33.901Z,96552.47
2023-05-02T11:23:36.878Z,96559.56
2023-05-02T11:24:42.941Z,96562.94
2023-05-02T11:25:46.922Z,96558.22
2023-05-02T11:26:48.422Z,96553.00
2023-05-02T11:27:49.973Z,96554.78
2023-05-02T11:28:51.950Z,96557.66
2023-05-02T11:30:12.802Z,96557.56
2023-05-02T11:31:26.706Z,96561.84
2023-05-02T11:32:47.396Z,96558.53
2023-05-02T11:33:56.912Z,96560.16
2023-05-02T11:34:59.033Z,96562.28
2023-05-02T11:36:01.066Z,96555.06
2023-05-02T11:37:11.447Z,96555.28
2023-05-02T11:38:15.508Z,96557.81
2023-05-02T11:39:21.700Z,96550.75
2023-05-02T11:40:24.010Z,96556.94
2023-05-02T11:41:44.328Z,96555.41
2023-05-02T11:42:45.945Z,96554.06
2023-05-02T11:43:47.604Z,96557.19
2023-05-02T11:44:59.855Z,96549.38
2023-05-02T11:46:02.561Z,96549.38
2023-05-02T11:47:04.445Z,96549.72
2023-05-02T11:48:07.509Z,96544.44
2023-05-02T11:49:10.544Z,96548.03
2023-05-02T11:50:13.478Z,96546.72
2023-05-02T11:51:23.062Z,96551.13
2023-05-02T11:52:24.905Z,96550.00
2023-05-02T11:53:29.334Z,96551.00
2023-05-02T11:54:31.058Z,96551.03
2023-05-02T11:55:32.651Z,96543.47
2023-05-02T11:56:34.172Z,96544.63
2023-05-02T11:57:36.263Z,96545.19
2023-05-02T11:58:37.725Z,96541.63
2023-05-02T11:59:51.597Z,96548.38
2023-05-02T12:00:53.919Z,96539.59
2023-05-02T12:01:55.830Z,96540.63
2023-05-02T12:02:57.772Z,96549.28
2023-05-02T12:04:07.842Z,96543.97
2023-05-02T12:05:12.936Z,96543.31
2023-05-02T12:06:16.505Z,96545.91
2023-05-02T12:07:18.143Z,96550.47
2023-05-02T12:08:27.328Z,96549.25
2023-05-02T12:09:28.930Z,96542.16
2023-05-02T12:10:37.570Z,96544.69
2023-05-02T12:11:39.244Z,96539.91
2023-05-02T12:12:43.492Z,96543.53
2023-05-02T12:13:50.274Z,96540.25
2023-05-02T12:14:52.263Z,96544.44
2023-05-02T12:15:54.868Z,96539.50
2023-05-02T12:16:58.902Z,96530.94
2023-05-02T12:18:01.472Z,96539.31
2023-05-02T12:19:04.259Z,96541.63
2023-05-02T12:20:09.309Z,96538.16
2023-05-02T12:21:11.379Z,96536.88
2023-05-02T12:22:14.410Z,96535.06
2023-05-02T12:23:16.230Z,96542.66
2023-05-02T12:24:18.093Z,96542.25
2023-05-02T12:25:19.730Z,96544.88
2023-05-02T12:26:29.207Z,96545.16
2023-05-02T12:27:30.669Z,96554.13
2023-05-02T12:28:32.193Z,96549.25
2023-05-02T12:29:41.708Z,96545.53
2023-05-02T12:30:43.441Z,96546.75
2023-05-02T12:31:51.639Z,96539.13
2023-05-02T12:32:59.749Z,96539.75
2023-05-02T12:34:01.614Z,96548.63
2023-05-02T12:35:04.114Z,96546.25
2023-05-02T12:36:07.944Z,96540.91
2023-05-02T12:37:09.545Z,96551.75
2023-05-02T12:38:18.827Z,96550.16